Alpine, Arkansas
Current Conditions -  °F | °C
As of 3:56 AM on Thursday 18 Dec 2014 (Local Time) from KADF Reporting Station
Haze Haze  
Wind Chill: 38°   Ceiling: 600
Heat Index: 38°   Visibility: 5mi
Dew Point: 38°   Wind: 3mph
Humidity: 100%   Direction: 90°E
Pressure: 30.21"   Gusts: NA
Location:  34.23°N, 93.38°W
Report Text: KADF 180956Z AUTO 09003KT 5SM BR OVC006 03/03 A3021 RMK AO2 T00330033 CIG 004V011 RAE45 P0004 SLP245
Loading
Personal Weather Stations






























Interactive Weather Map New forecast layout! Learn more

10-Day Weather Forecast

Advertisements
Track Severe Weather on mobile